createdAt,value
2018-09-08T00:01:57.830Z,81.60
2018-09-08T00:04:29.494Z,81.60
2018-09-08T00:07:06.065Z,81.90
2018-09-08T00:09:37.808Z,82.10
2018-09-08T00:12:09.458Z,82.10
2018-09-08T00:14:39.970Z,81.80
2018-09-08T00:17:16.580Z,81.60
2018-09-08T00:19:53.261Z,81.70
2018-09-08T00:22:30.009Z,81.70
2018-09-08T00:25:06.651Z,81.70
2018-09-08T00:27:42.342Z,81.70
2018-09-08T00:30:15.108Z,81.60
2018-09-08T00:32:46.887Z,81.90
2018-09-08T00:35:18.674Z,81.90
2018-09-08T00:37:50.306Z,82.20
2018-09-08T00:40:22.578Z,82.40
2018-09-08T00:42:54.331Z,82.40
2018-09-08T00:45:26.086Z,82.70
2018-09-08T00:47:57.761Z,82.80
2018-09-08T00:50:29.610Z,83.00
2018-09-08T00:53:01.465Z,83.00
2018-09-08T00:55:33.261Z,83.00
2018-09-08T00:58:04.895Z,83.00
2018-09-08T01:00:36.740Z,82.70
2018-09-08T01:03:08.631Z,82.50
2018-09-08T01:05:40.286Z,82.40
2018-09-08T01:08:12.120Z,82.50
2018-09-08T01:10:43.906Z,81.90
2018-09-08T01:13:15.658Z,81.20
2018-09-08T01:15:47.500Z,80.90
2018-09-08T01:18:19.266Z,80.30
2018-09-08T01:20:50.961Z,80.20
2018-09-08T01:23:22.795Z,80.00
2018-09-08T01:25:54.638Z,80.10
2018-09-08T01:28:26.313Z,79.90
2018-09-08T01:30:58.050Z,79.70
2018-09-08T01:33:29.902Z,79.50
2018-09-08T01:36:01.708Z,79.60
2018-09-08T01:38:33.344Z,79.40
2018-09-08T01:41:05.224Z,80.20
2018-09-08T01:43:36.874Z,79.50
2018-09-08T01:46:08.870Z,79.40
2018-09-08T01:48:40.769Z,79.40
2018-09-08T01:51:12.509Z,80.00
2018-09-08T01:53:44.312Z,80.30
2018-09-08T01:56:16.153Z,80.60
2018-09-08T01:58:47.919Z,80.80
2018-09-08T02:01:19.708Z,80.90
2018-09-08T02:03:51.465Z,81.20
2018-09-08T02:06:23.224Z,81.30
2018-09-08T02:08:54.918Z,81.60
2018-09-08T02:11:26.850Z,82.10
2018-09-08T02:13:58.425Z,82.30
2018-09-08T02:16:30.237Z,83.00
2018-09-08T02:19:02.064Z,82.20
2018-09-08T02:21:33.757Z,82.20
2018-09-08T02:24:05.637Z,81.90
2018-09-08T02:26:37.470Z,81.80
2018-09-08T02:29:09.228Z,82.20
2018-09-08T02:31:40.913Z,81.70
2018-09-08T02:34:12.749Z,81.40
2018-09-08T02:36:44.511Z,81.70
2018-09-08T02:39:16.286Z,81.30
2018-09-08T02:41:48.230Z,81.40
2018-09-08T02:44:19.981Z,81.40
2018-09-08T02:46:51.776Z,81.40
2018-09-08T02:49:24.425Z,81.70
2018-09-08T02:51:53.506Z,81.70
2018-09-08T02:54:22.607Z,81.60
2018-09-08T02:56:51.701Z,81.40
2018-09-08T02:59:20.794Z,81.40
2018-09-08T03:01:49.836Z,81.50
2018-09-08T03:04:18.891Z,81.60
2018-09-08T03:06:47.985Z,81.80
2018-09-08T03:09:17.122Z,81.80
2018-09-08T03:11:46.228Z,82.10
2018-09-08T03:14:15.321Z,82.60
2018-09-08T03:16:44.370Z,82.70
2018-09-08T03:19:13.464Z,83.30
2018-09-08T03:21:42.566Z,82.70
2018-09-08T03:24:11.662Z,82.90
2018-09-08T03:26:40.750Z,83.00
2018-09-08T03:29:09.954Z,83.20
2018-09-08T03:31:38.994Z,83.00
2018-09-08T03:34:08.043Z,83.10
2018-09-08T03:36:37.142Z,83.60
2018-09-08T03:39:06.443Z,83.40
2018-09-08T03:41:36.097Z,83.20
2018-09-08T03:44:05.295Z,82.80
2018-09-08T03:46:34.392Z,83.80
2018-09-08T03:49:03.488Z,83.00
2018-09-08T03:51:32.584Z,82.90
2018-09-08T03:54:01.636Z,83.90
2018-09-08T03:56:30.678Z,83.40
2018-09-08T03:59:00.816Z,83.40
2018-09-08T04:01:29.891Z,83.30
2018-09-08T04:04:01.821Z,83.40
2018-09-08T04:06:33.596Z,83.10
2018-09-08T04:09:07.706Z,82.80
2018-09-08T04:11:39.676Z,82.70
2018-09-08T04:14:11.422Z,82.60
2018-09-08T04:16:43.203Z,83.10
2018-09-08T04:19:15.042Z,82.90
2018-09-08T04:21:46.798Z,83.20
2018-09-08T04:24:18.560Z,82.70
2018-09-08T04:26:51.132Z,82.80
2018-09-08T04:29:22.956Z,82.90
2018-09-08T04:31:54.890Z,83.00
2018-09-08T04:34:26.651Z,83.00
2018-09-08T04:36:58.272Z,83.70
2018-09-08T04:39:29.945Z,83.10
2018-09-08T04:42:01.610Z,83.30
2018-09-08T04:44:33.247Z,83.30
2018-09-08T04:47:05.121Z,83.00
2018-09-08T04:49:36.896Z,83.00
2018-09-08T04:52:08.545Z,83.20
2018-09-08T04:54:40.283Z,83.60
2018-09-08T04:57:11.948Z,83.80
2018-09-08T04:59:43.622Z,83.80
2018-09-08T05:02:15.451Z,83.90
2018-09-08T05:04:47.342Z,84.80
2018-09-08T05:07:19.104Z,84.90
2018-09-08T05:09:50.946Z,84.30
2018-09-08T05:12:22.686Z,84.60
2018-09-08T05:14:54.369Z,84.70
2018-09-08T05:17:26.101Z,84.60
2018-09-08T05:19:57.957Z,84.70
2018-09-08T05:22:29.789Z,84.80
2018-09-08T05:25:01.624Z,84.70
2018-09-08T05:27:33.554Z,84.50
2018-09-08T05:30:05.400Z,84.40
2018-09-08T05:32:37.273Z,84.40
2018-09-08T05:35:09.407Z,84.60
2018-09-08T05:37:40.998Z,84.50
2018-09-08T05:40:12.779Z,84.70
2018-09-08T05:42:44.551Z,84.80
2018-09-08T05:45:16.312Z,84.60
2018-09-08T05:47:47.950Z,84.70
2018-09-08T05:50:19.893Z,84.80
2018-09-08T05:52:51.682Z,84.80
2018-09-08T05:55:23.337Z,84.90
2018-09-08T05:57:55.103Z,85.10
2018-09-08T06:00:26.731Z,85.00
2018-09-08T06:02:58.505Z,84.90
2018-09-08T06:05:30.249Z,84.80
2018-09-08T06:08:02.150Z,85.00
2018-09-08T06:10:33.900Z,84.80
2018-09-08T06:13:05.581Z,84.60
2018-09-08T06:15:37.412Z,84.60
2018-09-08T06:18:09.183Z,84.20
2018-09-08T06:20:40.905Z,84.20
2018-09-08T06:23:12.561Z,83.60
2018-09-08T06:25:44.318Z,83.10
2018-09-08T06:28:16.095Z,82.80
2018-09-08T06:30:47.976Z,82.70
2018-09-08T06:33:19.810Z,82.80
2018-09-08T06:35:51.562Z,83.00
2018-09-08T06:38:23.348Z,82.70
2018-09-08T06:40:55.010Z,82.80
2018-09-08T06:43:26.865Z,82.70
2018-09-08T06:45:58.599Z,82.10
2018-09-08T06:48:30.264Z,82.60
2018-09-08T06:51:02.129Z,81.80
2018-09-08T06:53:34.007Z,81.10
2018-09-08T06:56:05.800Z,81.00
2018-09-08T06:58:37.612Z,80.50
2018-09-08T07:01:09.734Z,80.30
2018-09-08T07:03:41.414Z,79.90
2018-09-08T07:06:13.310Z,79.40
2018-09-08T07:08:45.166Z,79.50
2018-09-08T07:11:16.807Z,79.60
2018-09-08T07:13:48.574Z,79.70
2018-09-08T07:16:20.421Z,80.00
2018-09-08T07:18:52.196Z,79.60
2018-09-08T07:21:23.943Z,79.40
2018-09-08T07:23:55.697Z,78.90
2018-09-08T07:26:27.557Z,78.60
2018-09-08T07:28:59.290Z,78.70
2018-09-08T07:31:31.078Z,78.10
2018-09-08T07:34:02.748Z,77.70
2018-09-08T07:36:34.509Z,77.60
2018-09-08T07:39:08.913Z,77.20
2018-09-08T07:41:40.611Z,77.30
2018-09-08T07:44:12.431Z,77.30
2018-09-08T07:46:44.333Z,77.40
2018-09-08T07:49:16.001Z,77.00
2018-09-08T07:51:47.809Z,76.20
2018-09-08T07:54:19.559Z,76.00
2018-09-08T07:56:51.360Z,75.60
2018-09-08T07:59:23.249Z,75.10
2018-09-08T08:01:55.062Z,75.40
2018-09-08T08:04:26.715Z,75.40
2018-09-08T08:06:58.631Z,76.40
2018-09-08T08:09:30.427Z,76.10
2018-09-08T08:12:02.189Z,76.00
2018-09-08T08:14:33.932Z,75.60
2018-09-08T08:17:05.736Z,75.10
2018-09-08T08:19:38.046Z,74.90
2018-09-08T08:22:09.973Z,73.30
2018-09-08T08:24:41.718Z,71.40
2018-09-08T08:27:13.488Z,69.00
2018-09-08T08:29:45.162Z,69.80
2018-09-08T08:32:16.891Z,69.80
2018-09-08T08:34:48.637Z,70.30
2018-09-08T08:37:20.659Z,70.50
2018-09-08T08:39:52.483Z,70.40
2018-09-08T08:42:24.330Z,69.90
2018-09-08T08:44:56.212Z,69.60
2018-09-08T08:47:27.840Z,69.20
2018-09-08T08:50:15.554Z,68.70
2018-09-08T08:53:03.184Z,67.00
2018-09-08T08:55:34.865Z,66.60
2018-09-08T08:58:06.538Z,65.00
2018-09-08T09:00:38.277Z,63.60
2018-09-08T09:03:10.154Z,60.60
2018-09-08T09:05:42.008Z,60.20
2018-09-08T09:08:13.776Z,59.60
2018-09-08T09:10:45.417Z,57.00
2018-09-08T09:13:17.235Z,56.00
2018-09-08T09:16:00.580Z,55.90
2018-09-08T09:18:49.539Z,54.90
2018-09-08T09:21:37.635Z,55.50
2018-09-08T09:24:34.564Z,54.40
2018-09-08T09:27:06.121Z,53.30
2018-09-08T09:29:37.778Z,51.00
2018-09-08T09:32:09.649Z,51.30
2018-09-08T09:34:41.929Z,52.60
2018-09-08T09:37:13.889Z,52.80
2018-09-08T09:39:45.729Z,52.70
2018-09-08T09:42:17.479Z,53.00
2018-09-08T09:44:49.247Z,50.60
2018-09-08T09:47:20.961Z,50.20
2018-09-08T09:49:52.962Z,51.00
2018-09-08T09:52:26.377Z,51.60
2018-09-08T09:54:58.330Z,50.50
2018-09-08T09:57:30.119Z,48.60
2018-09-08T10:00:11.186Z,49.20
2018-09-08T10:03:17.664Z,48.30
2018-09-08T10:05:51.162Z,47.60
2018-09-08T10:08:22.958Z,46.00
2018-09-08T10:10:54.696Z,47.30
2018-09-08T10:13:26.812Z,47.70
2018-09-08T10:15:58.482Z,47.80
2018-09-08T10:18:30.494Z,47.20
2018-09-08T10:21:03.611Z,46.80
2018-09-08T10:23:35.455Z,46.60
2018-09-08T10:26:07.178Z,46.60
2018-09-08T10:28:38.942Z,46.00
2018-09-08T10:31:10.699Z,46.30
2018-09-08T10:33:42.459Z,46.10
2018-09-08T10:36:14.305Z,46.60
2018-09-08T10:38:46.155Z,46.60
2018-09-08T10:41:17.905Z,45.40
2018-09-08T10:43:49.679Z,45.30
2018-09-08T10:46:21.562Z,46.00
2018-09-08T10:48:53.489Z,45.40
2018-09-08T10:53:02.159Z,44.50
2018-09-08T10:55:33.847Z,44.50
2018-09-08T10:58:05.556Z,44.70
2018-09-08T11:00:37.406Z,44.10
2018-09-08T11:03:09.279Z,43.80
2018-09-08T11:05:41.055Z,43.30
2018-09-08T11:08:12.773Z,43.20
2018-09-08T11:10:44.446Z,43.90
2018-09-08T11:13:16.201Z,44.20
2018-09-08T11:15:48.092Z,43.90
2018-09-08T11:18:19.818Z,42.70
2018-09-08T11:20:51.489Z,41.90
2018-09-08T11:23:23.225Z,42.20
2018-09-08T11:25:55.020Z,40.70
2018-09-08T11:28:26.662Z,41.10
2018-09-08T11:30:58.402Z,42.10
2018-09-08T11:33:30.072Z,42.50
2018-09-08T11:36:01.822Z,42.70
2018-09-08T11:38:33.577Z,43.20
2018-09-08T11:41:05.357Z,42.60
2018-09-08T11:43:37.366Z,41.10
2018-09-08T11:46:09.290Z,37.70
2018-09-08T11:48:40.918Z,39.00
2018-09-08T11:51:12.547Z,40.00
2018-09-08T11:53:44.253Z,40.40
2018-09-08T11:56:16.026Z,40.10
2018-09-08T11:58:47.783Z,39.20
2018-09-08T12:01:19.500Z,38.10
2018-09-08T12:03:51.344Z,38.20
2018-09-08T12:06:22.942Z,36.80
2018-09-08T12:08:54.707Z,36.50
2018-09-08T12:11:26.565Z,36.30
2018-09-08T12:13:58.467Z,34.30
2018-09-08T12:16:30.158Z,34.70
2018-09-08T12:19:02.002Z,35.80
2018-09-08T12:21:33.695Z,35.70
2018-09-08T12:24:05.491Z,35.30
2018-09-08T12:26:37.403Z,35.40
2018-09-08T12:29:09.373Z,33.90
2018-09-08T12:31:41.161Z,33.60
2018-09-08T12:34:12.883Z,34.10
2018-09-08T12:36:44.854Z,34.70
2018-09-08T12:39:16.843Z,34.60
2018-09-08T12:41:48.593Z,35.00
2018-09-08T12:44:20.350Z,35.00
2018-09-08T12:46:52.095Z,34.40
2018-09-08T12:49:23.763Z,33.80
2018-09-08T12:51:55.418Z,33.50
2018-09-08T12:54:27.270Z,33.10
2018-09-08T12:56:58.935Z,33.00
2018-09-08T12:59:30.678Z,33.30
2018-09-08T13:02:02.433Z,34.00
2018-09-08T13:04:34.411Z,35.40
2018-09-08T13:07:06.194Z,34.40
2018-09-08T13:09:37.836Z,34.80
2018-09-08T13:12:09.991Z,35.10
2018-09-08T13:14:42.046Z,34.40
2018-09-08T13:17:13.693Z,34.80
2018-09-08T13:19:45.382Z,35.40
2018-09-08T13:22:17.082Z,35.60
2018-09-08T13:24:48.789Z,35.10
2018-09-08T13:27:20.594Z,34.90
2018-09-08T13:29:52.506Z,33.10
2018-09-08T13:32:24.166Z,33.00
2018-09-08T13:34:56.081Z,34.00
2018-09-08T13:37:27.878Z,34.70
2018-09-08T13:39:59.584Z,34.70
2018-09-08T13:42:31.330Z,34.90
2018-09-08T13:45:03.182Z,35.40
2018-09-08T13:47:34.954Z,35.60
2018-09-08T13:50:06.824Z,35.40
2018-09-08T13:52:38.680Z,34.80
2018-09-08T13:55:10.510Z,31.80
2018-09-08T13:57:42.157Z,32.80
2018-09-08T14:00:14.023Z,32.70
2018-09-08T14:02:45.894Z,32.80
2018-09-08T14:05:17.558Z,33.30
2018-09-08T14:07:54.041Z,33.40
2018-09-08T14:10:25.979Z,32.20
2018-09-08T14:12:57.765Z,32.60
2018-09-08T14:15:29.645Z,33.50
2018-09-08T14:18:01.376Z,32.20
2018-09-08T14:20:33.038Z,32.10
2018-09-08T14:23:04.788Z,32.10
2018-09-08T14:25:36.755Z,32.60
2018-09-08T14:28:08.491Z,32.70
2018-09-08T14:30:40.268Z,33.10
2018-09-08T14:33:12.011Z,33.10
2018-09-08T14:35:43.697Z,32.80
2018-09-08T14:38:15.453Z,32.40
2018-09-08T14:40:47.185Z,32.70
2018-09-08T14:43:18.867Z,33.30
2018-09-08T14:45:50.747Z,33.20
2018-09-08T14:48:22.697Z,31.90
2018-09-08T14:50:54.369Z,32.90
2018-09-08T14:53:26.187Z,33.90
2018-09-08T14:55:57.841Z,33.60
2018-09-08T14:58:29.611Z,33.40
2018-09-08T15:01:01.357Z,33.40
2018-09-08T15:03:33.217Z,33.10
2018-09-08T15:06:05.008Z,32.20
2018-09-08T15:08:36.862Z,31.70
2018-09-08T15:11:08.698Z,32.70
2018-09-08T15:13:40.462Z,32.50
2018-09-08T15:16:12.249Z,32.70
2018-09-08T15:18:44.094Z,32.00
2018-09-08T15:21:15.830Z,33.20
2018-09-08T15:23:47.490Z,32.20
2018-09-08T15:26:19.276Z,32.20
2018-09-08T15:28:51.023Z,32.10
2018-09-08T15:31:22.759Z,31.90
2018-09-08T15:33:54.729Z,31.80
2018-09-08T15:36:26.494Z,32.00
2018-09-08T15:38:58.275Z,31.80
2018-09-08T15:41:30.115Z,32.00
2018-09-08T15:44:01.777Z,32.30
2018-09-08T15:46:33.553Z,32.50
2018-09-08T15:49:05.431Z,32.40
2018-09-08T15:51:37.396Z,32.10
2018-09-08T15:54:10.159Z,32.20
2018-09-08T15:56:41.814Z,32.40
2018-09-08T15:59:13.567Z,32.90
2018-09-08T16:01:45.339Z,32.30
2018-09-08T16:04:17.203Z,32.30
2018-09-08T16:06:49.045Z,32.60
2018-09-08T16:09:20.818Z,33.00
2018-09-08T16:11:52.584Z,32.50
2018-09-08T16:14:24.377Z,32.90
2018-09-08T16:16:56.305Z,33.50
2018-09-08T16:19:27.946Z,33.50
2018-09-08T16:21:59.610Z,33.90
2018-09-08T16:24:31.376Z,34.30
2018-09-08T16:27:03.239Z,34.40
2018-09-08T16:29:34.937Z,34.50
2018-09-08T16:32:06.643Z,34.90
2018-09-08T16:34:38.382Z,34.70
2018-09-08T16:37:10.165Z,35.90
2018-09-08T16:39:41.906Z,36.20
2018-09-08T16:42:13.650Z,35.90
2018-09-08T16:44:45.552Z,36.30
2018-09-08T16:47:17.307Z,36.30
2018-09-08T16:49:48.941Z,36.30
2018-09-08T16:52:20.815Z,37.00
2018-09-08T16:54:52.465Z,36.50
2018-09-08T16:57:24.134Z,37.10
2018-09-08T16:59:55.907Z,37.00
2018-09-08T17:02:27.638Z,37.50
2018-09-08T17:04:59.413Z,37.60
2018-09-08T17:07:31.349Z,37.90
2018-09-08T17:10:03.126Z,38.00
2018-09-08T17:12:34.677Z,38.10
2018-09-08T17:15:06.882Z,38.50
2018-09-08T17:17:38.718Z,38.90
2018-09-08T17:20:10.462Z,39.30
2018-09-08T17:22:42.231Z,39.90
2018-09-08T17:25:13.965Z,40.40
2018-09-08T17:27:45.761Z,40.60
2018-09-08T17:30:17.512Z,41.10
2018-09-08T17:32:49.380Z,41.20
2018-09-08T17:35:21.018Z,42.10
2018-09-08T17:37:52.701Z,43.00
2018-09-08T17:40:24.555Z,42.20
2018-09-08T17:42:56.194Z,42.70
2018-09-08T17:45:27.972Z,43.10
2018-09-08T17:47:59.825Z,42.80
2018-09-08T17:50:31.665Z,43.80
2018-09-08T17:53:03.328Z,43.20
2018-09-08T17:55:35.180Z,43.20
2018-09-08T17:58:06.928Z,43.40
2018-09-08T18:00:39.298Z,43.80
2018-09-08T18:03:11.139Z,44.00
2018-09-08T18:05:43.225Z,44.20
2018-09-08T18:08:19.491Z,44.30
2018-09-08T18:10:51.295Z,44.30
2018-09-08T18:13:23.528Z,44.40
2018-09-08T18:15:55.406Z,45.20
2018-09-08T18:18:27.176Z,45.40
2018-09-08T18:20:58.914Z,45.70
2018-09-08T18:23:30.587Z,46.30
2018-09-08T18:26:02.351Z,47.10
2018-09-08T18:28:34.115Z,47.60
2018-09-08T18:31:05.763Z,47.80
2018-09-08T18:33:37.534Z,48.00
2018-09-08T18:36:10.072Z,48.00
2018-09-08T18:38:41.870Z,49.00
2018-09-08T18:41:13.634Z,49.00
2018-09-08T18:43:45.268Z,50.30
2018-09-08T18:46:17.122Z,49.90
2018-09-08T18:48:48.886Z,49.80
2018-09-08T18:51:20.768Z,49.80
2018-09-08T18:53:52.552Z,50.10
2018-09-08T18:56:24.568Z,51.20
2018-09-08T18:58:56.454Z,53.00
2018-09-08T19:01:28.214Z,53.90
2018-09-08T19:04:00.070Z,55.20
2018-09-08T19:06:31.914Z,54.70
2018-09-08T19:09:04.001Z,54.80
2018-09-08T19:11:35.933Z,55.30
2018-09-08T19:14:11.616Z,54.70
2018-09-08T19:16:43.446Z,53.90
2018-09-08T19:19:15.118Z,53.50
2018-09-08T19:21:46.911Z,53.60
2018-09-08T19:24:23.761Z,54.00
2018-09-08T19:26:55.598Z,54.10
2018-09-08T19:29:32.340Z,54.20
2018-09-08T19:32:04.033Z,54.40
2018-09-08T19:34:35.718Z,54.50
2018-09-08T19:37:07.770Z,54.60
2018-09-08T19:39:39.431Z,54.90
2018-09-08T19:42:11.094Z,55.40
2018-09-08T19:44:42.939Z,55.00
2018-09-08T19:48:19.541Z,54.70
2018-09-08T19:50:51.275Z,54.80
2018-09-08T19:53:27.757Z,55.80
2018-09-08T19:55:59.604Z,55.20
2018-09-08T19:58:36.162Z,55.50
2018-09-08T20:01:07.841Z,55.70
2018-09-08T20:03:39.565Z,55.60
2018-09-08T20:06:11.446Z,55.90
2018-09-08T20:08:43.191Z,55.90
2018-09-08T20:11:14.964Z,56.50
2018-09-08T20:13:46.880Z,55.70
2018-09-08T20:16:18.599Z,55.00
2018-09-08T20:18:50.209Z,55.20
2018-09-08T20:21:21.931Z,55.60
2018-09-08T20:23:53.631Z,55.70
2018-09-08T20:26:25.480Z,55.60
2018-09-08T20:28:57.210Z,55.40
2018-09-08T20:31:29.169Z,55.60
2018-09-08T20:34:00.854Z,56.00
2018-09-08T20:36:32.666Z,56.50
2018-09-08T20:39:05.010Z,57.00
2018-09-08T20:41:36.786Z,56.50
2018-09-08T20:44:08.683Z,56.40
2018-09-08T20:46:40.325Z,56.60
2018-09-08T20:49:12.038Z,57.60
2018-09-08T20:51:43.874Z,57.40
2018-09-08T20:54:15.701Z,57.40
2018-09-08T20:56:47.509Z,57.90
2018-09-08T20:59:19.406Z,58.00
2018-09-08T21:01:51.065Z,58.50
2018-09-08T21:04:22.746Z,59.50
2018-09-08T21:06:54.593Z,60.20
2018-09-08T21:09:26.547Z,60.90
2018-09-08T21:11:58.337Z,61.30
2018-09-08T21:14:30.078Z,61.70
2018-09-08T21:17:01.859Z,62.00
2018-09-08T21:19:33.520Z,62.30
2018-09-08T21:22:05.289Z,62.60
2018-09-08T21:24:36.917Z,62.70
2018-09-08T21:27:08.763Z,62.80
2018-09-08T21:29:40.433Z,62.70
2018-09-08T21:32:12.377Z,63.00
2018-09-08T21:34:44.047Z,63.60
2018-09-08T21:37:15.810Z,64.00
2018-09-08T21:39:47.559Z,64.30
2018-09-08T21:42:19.217Z,64.50
2018-09-08T21:44:50.913Z,64.50
2018-09-08T21:47:22.638Z,64.60
2018-09-08T21:49:54.290Z,64.60
2018-09-08T21:52:26.136Z,64.60
2018-09-08T21:54:57.937Z,64.70
2018-09-08T21:57:30.695Z,64.70
2018-09-08T22:00:02.446Z,64.70
2018-09-08T22:02:34.126Z,64.60
2018-09-08T22:05:06.093Z,64.60
2018-09-08T22:07:38.228Z,65.40
2018-09-08T22:10:10.369Z,64.70
2018-09-08T22:12:42.150Z,64.20
2018-09-08T22:15:13.937Z,63.80
2018-09-08T22:17:45.682Z,64.00
2018-09-08T22:20:17.344Z,64.00
2018-09-08T22:22:49.025Z,64.00
2018-09-08T22:25:20.855Z,63.90
2018-09-08T22:27:52.510Z,63.80
2018-09-08T22:30:24.257Z,63.90
2018-09-08T22:32:56.410Z,64.00
2018-09-08T22:35:28.228Z,64.00
2018-09-08T22:37:59.968Z,63.90
2018-09-08T22:40:31.743Z,63.90
2018-09-08T22:43:03.598Z,64.00
2018-09-08T22:45:35.364Z,64.70
2018-09-08T22:48:07.258Z,64.10
2018-09-08T22:50:39.717Z,64.10
2018-09-08T22:53:11.924Z,64.00
2018-09-08T22:55:43.702Z,65.20
2018-09-08T22:58:15.462Z,65.60
2018-09-08T23:00:47.129Z,66.10
2018-09-08T23:03:18.864Z,67.20
2018-09-08T23:05:50.737Z,68.00
2018-09-08T23:08:22.498Z,68.20
2018-09-08T23:10:54.169Z,68.30
2018-09-08T23:13:26.041Z,68.20
2018-09-08T23:15:57.678Z,68.20
2018-09-08T23:18:29.351Z,68.50
2018-09-08T23:21:01.114Z,68.70
2018-09-08T23:23:32.737Z,69.00
2018-09-08T23:26:04.510Z,68.80
2018-09-08T23:28:36.284Z,68.60
2018-09-08T23:31:08.032Z,68.20
2018-09-08T23:33:39.769Z,68.00
2018-09-08T23:36:11.438Z,67.70
2018-09-08T23:38:43.106Z,67.30
2018-09-08T23:41:14.858Z,67.10
2018-09-08T23:43:46.528Z,67.10
2018-09-08T23:46:18.372Z,67.10
2018-09-08T23:48:50.133Z,67.10
2018-09-08T23:51:21.814Z,67.50
2018-09-08T23:53:53.541Z,68.00
2018-09-08T23:56:25.405Z,68.50
2018-09-08T23:58:57.190Z,68.90
